Kabala Airport

Jump to: basic info | weather | comments

Related pages: nearby airports | nearby navaids | notams | map

Basic information (top)

Codes: KBA GFKB
Location: lon 9.638323, lat -11.515560, elev 1,012 ft / 308 m msl
Status: small_airport
Scheduled airline service: no
Links: Wikipedia Mobile

Weather (top)

Current conditions for Labe Airport 111nm (206km) NNW (rec'd 2014/08/20 09:00Z):

GULB 200900Z 27004KT 9999 BKN010 21/20 Q1016 NOSIG

Airport forecast for Lungi International Airport 117nm (217km) WSW (rec'd 2014/08/29 12:00Z):

TAF GFLL 291000Z 2912/3018 30010KT 9000 ?RA BKN011 
      TEMPO 2912/2920 27008KT 9999 BKN013 FEW027CB PROB30 
      TEMPO 2921/3005 18011KT 6000 ?TSRA BKN009 
      BECMG 3006/3008 21007KT 9999 BKN011

Latest comments (top)

No comments yet for Kabala Airport

More... (top)

See also NOTAMs and nearby airports and navaids, or visit the Kabala Airport page at the main OurAirports website..